Portada
METAR-TAF:

METAR-TAF

Aeropuertos :

Aeropuerto de Logroño-Agoncillo

Logroño, España

latitud: 42-27N, longitud: 002-20W, altitud: 353 m

Observación

El informe se hizo hace 39 minutos, a las 06:30 UTC
Viento 11 kt del oeste-suroeste
Temperatura 13°C
Humedad 77%
Presión 1022 hPa
Visibilidad 10 km o más
Cielo nuboso a una altura de 2900 ft

METAR: LELO 250630Z 25011KT 9999 BKN029 13/09 Q1022

Hora: 09:09 (07:09 UTC)

Pronóstico

El informe se hizo hace 2 horas y 9 minutos, a las 05:00 UTC
Pronóstico válido del 25 a las 06 UTC al 25 a las 15 UTC
Viento 8 kt del oeste-noroeste
Visibilidad 10 km o más
Cielo nuboso a una altura de 2800 ft
Probabilidad 40% :
Temporalmente
del 25 a las 06 UTC al 25 a las 08 UTC
Cielo nuboso a una altura de 1000 ft

TAF: LELO 250500Z 2506/2515 29008KT 9999 BKN028 PROB40 TEMPO 2506/2508 BKN010

Observaciones y pronósticos meteorológicos de más de 4000 aeropuertos (mensajes METAR y TAF).

Los puntos amarillos y rojos representan las estaciones disponibles.

Ponga el ratón en el punto deseado para ver el nombre de la estación.

Haga clic para ver las observaciones y los pronósticos meteorológicos.

Para cambiar el mapa : haga clic en los botones verdes con una cruz de color negro para hacer un zoom, en el botón verde con un guión para alejar o en las flechas verdes para mapas adyacentes.


METAR-TAF: